Time;durP1;ratioP1;P1;durP2;ratioP2;P2;SDS_P1;SDS_P2;PMS_P1;PMS_P2;Temp;Humidity;BMP_temperature;BMP_pressure;BME280_temperature;BME280_humidity;BME280_pressure;Samples;Min_cycle;Max_cycle;Signal;HPM_P1;HPM_P2
2024/02/11 00:00:37;;;;;;;2.80;2.60;;;;;;;;;;5033579;28;20470;-80
2024/02/11 00:03:03;;;;;;;1.70;1.60;;;;;;;;;;5032708;28;20387;-80
2024/02/11 00:05:31;;;;;;;1.30;1.20;;;;;;;;;;5033266;28;20402;-81
2024/02/11 00:07:57;;;;;;;1.63;1.20;;;;;;;;;;5033356;28;20383;-81
2024/02/11 00:10:23;;;;;;;2.00;0.82;;;;;;;;;;5033761;28;20391;-81
2024/02/11 00:12:49;;;;;;;0.60;0.60;;;;;;;;;;5033572;28;20913;-81
2024/02/11 00:15:15;;;;;;;0.32;0.32;;;;;;;;;;5037227;28;20411;-80
2024/02/11 00:17:46;;;;;;;0.35;0.30;;;;;;;;;;5037632;28;20386;-80
2024/02/11 00:20:14;;;;;;;0.20;0.20;;;;;;;;;;5036935;28;20820;-80
2024/02/11 00:22:40;;;;;;;0.15;0.15;;;;;;;;;;5036995;28;20463;-80
2024/02/11 00:25:10;;;;;;;0.20;0.20;;;;;;;;;;5036970;28;20417;-80
2024/02/11 00:27:42;;;;;;;0.20;0.20;;;;;;;;;;5036500;28;20390;-80
2024/02/11 00:30:09;;;;;;;0.20;0.20;;;;;;;;;;5036701;28;20379;-80
2024/02/11 00:32:37;;;;;;;0.17;0.17;;;;;;;;;;5037146;28;20386;-80
2024/02/11 00:35:03;;;;;;;0.83;0.20;;;;;;;;;;5036352;28;20407;-80
2024/02/11 00:37:29;;;;;;;0.25;0.10;;;;;;;;;;5036573;28;20375;-79
2024/02/11 00:39:58;;;;;;;0.75;0.17;;;;;;;;;;5036542;28;20462;-80
2024/02/11 00:42:27;;;;;;;0.17;0.10;;;;;;;;;;5036278;28;20375;-80
2024/02/11 00:44:54;;;;;;;0.10;0.10;;;;;;;;;;5036019;28;20387;-80
2024/02/11 00:47:20;;;;;;;0.10;0.10;;;;;;;;;;5036256;28;20382;-80
2024/02/11 00:49:47;;;;;;;0.20;0.20;;;;;;;;;;5036615;28;20481;-80
2024/02/11 00:52:15;;;;;;;0.10;0.10;;;;;;;;;;5036723;28;20393;-80
2024/02/11 00:54:41;;;;;;;0.10;0.10;;;;;;;;;;5036397;28;20387;-80
2024/02/11 00:57:07;;;;;;;0.20;0.10;;;;;;;;;;5036035;28;20475;-81
2024/02/11 00:59:34;;;;;;;0.17;0.17;;;;;;;;;;5036467;28;20379;-80
2024/02/11 01:02:00;;;;;;;0.10;0.10;;;;;;;;;;5036230;28;20463;-80
2024/02/11 01:04:26;;;;;;;0.10;0.10;;;;;;;;;;5035775;28;20405;-80
2024/02/11 01:06:53;;;;;;;0.20;0.10;;;;;;;;;;5035632;28;20387;-79
2024/02/11 01:09:20;;;;;;;0.10;0.10;;;;;;;;;;5036168;28;20414;-80
2024/02/11 01:11:50;;;;;;;0.25;0.10;;;;;;;;;;5035384;28;20383;-79
2024/02/11 01:14:18;;;;;;;0.32;0.10;;;;;;;;;;5035676;28;20884;-79
2024/02/11 01:16:44;;;;;;;1.90;0.10;;;;;;;;;;5017662;28;21020;-79
2024/02/11 01:19:11;;;;;;;0.10;0.10;;;;;;;;;;5035051;28;20470;-80
2024/02/11 01:21:37;;;;;;;0.10;0.10;;;;;;;;;;5035641;28;20375;-80
2024/02/11 01:24:04;;;;;;;0.10;0.10;;;;;;;;;;5035447;28;20406;-79
2024/02/11 01:26:30;;;;;;;0.82;0.10;;;;;;;;;;5035059;28;20387;-80
2024/02/11 01:28:56;;;;;;;0.10;0.10;;;;;;;;;;5036023;28;20413;-80
2024/02/11 01:31:22;;;;;;;0.10;0.10;;;;;;;;;;5035632;28;20391;-80
2024/02/11 01:33:49;;;;;;;0.20;0.20;;;;;;;;;;5036058;28;20405;-80
2024/02/11 01:36:15;;;;;;;0.25;0.10;;;;;;;;;;5035235;28;20399;-79
2024/02/11 01:38:41;;;;;;;0.10;0.10;;;;;;;;;;5035412;28;20840;-79
2024/02/11 01:41:07;;;;;;;0.97;0.20;;;;;;;;;;5035434;28;20382;-79
2024/02/11 01:43:33;;;;;;;0.20;0.20;;;;;;;;;;5035117;28;20405;-79
2024/02/11 01:45:59;;;;;;;0.10;0.10;;;;;;;;;;5035027;28;20489;-79
2024/02/11 01:48:30;;;;;;;0.30;0.30;;;;;;;;;;5034760;28;20907;-82
2024/02/11 01:50:57;;;;;;;0.30;0.28;;;;;;;;;;5034686;28;20387;-81
2024/02/11 01:53:24;;;;;;;0.20;0.20;;;;;;;;;;5034402;28;20857;-80
2024/02/11 01:55:50;;;;;;;0.20;0.20;;;;;;;;;;5034864;28;20411;-80
2024/02/11 01:58:16;;;;;;;0.22;0.22;;;;;;;;;;5034363;28;20376;-81
2024/02/11 02:00:43;;;;;;;0.22;0.22;;;;;;;;;;5034848;28;20722;-81
2024/02/11 02:03:09;;;;;;;0.20;0.20;;;;;;;;;;5034786;28;20379;-81
2024/02/11 02:05:37;;;;;;;0.30;0.30;;;;;;;;;;5034728;28;20418;-80
2024/02/11 02:08:04;;;;;;;0.37;0.37;;;;;;;;;;5034348;28;20387;-80
2024/02/11 02:10:31;;;;;;;1.50;0.50;;;;;;;;;;5036197;28;20399;-81
2024/02/11 02:12:57;;;;;;;0.30;0.30;;;;;;;;;;5036429;28;20462;-81
2024/02/11 02:15:24;;;;;;;2.20;0.50;;;;;;;;;;5036024;28;20435;-81
2024/02/11 02:17:50;;;;;;;0.60;0.40;;;;;;;;;;5035995;28;20380;-81
2024/02/11 02:20:16;;;;;;;0.50;0.40;;;;;;;;;;5035673;28;20389;-81
2024/02/11 02:22:42;;;;;;;0.40;0.40;;;;;;;;;;5035174;28;20376;-81
2024/02/11 02:25:09;;;;;;;0.50;0.50;;;;;;;;;;5035116;28;20375;-81
2024/02/11 02:27:38;;;;;;;0.50;0.50;;;;;;;;;;5035026;28;20387;-81
2024/02/11 02:30:07;;;;;;;0.60;0.60;;;;;;;;;;5034890;28;20383;-81
2024/02/11 02:32:34;;;;;;;0.60;0.60;;;;;;;;;;5034820;28;20795;-81
2024/02/11 02:35:00;;;;;;;0.75;0.75;;;;;;;;;;5034225;28;20912;-81
2024/02/11 02:37:28;;;;;;;0.68;0.68;;;;;;;;;;5034423;28;20383;-81
2024/02/11 02:39:54;;;;;;;0.70;0.70;;;;;;;;;;5034666;28;20389;-81
2024/02/11 02:42:21;;;;;;;0.90;0.90;;;;;;;;;;5016702;28;20383;-81
2024/02/11 02:44:47;;;;;;;1.40;0.82;;;;;;;;;;5034469;28;20861;-81
2024/02/11 02:47:13;;;;;;;0.77;0.77;;;;;;;;;;5016075;28;20390;-81
2024/02/11 02:49:39;;;;;;;0.95;0.95;;;;;;;;;;5033997;28;20407;-81
2024/02/11 02:52:07;;;;;;;1.13;0.90;;;;;;;;;;5034571;28;20466;-81
2024/02/11 02:54:34;;;;;;;1.30;1.20;;;;;;;;;;5034585;28;20376;-81
2024/02/11 02:57:00;;;;;;;1.00;1.00;;;;;;;;;;5034094;28;20417;-81
2024/02/11 02:59:26;;;;;;;1.00;1.00;;;;;;;;;;5034076;28;20462;-81
2024/02/11 03:02:01;;;;;;;1.30;1.20;;;;;;;;;;5033804;28;20423;-81
2024/02/11 03:04:27;;;;;;;0.90;0.90;;;;;;;;;;5033624;28;20421;-81
2024/02/11 03:06:55;;;;;;;0.97;0.97;;;;;;;;;;5033432;28;20401;-81
2024/02/11 03:09:21;;;;;;;1.20;1.10;;;;;;;;;;5033563;28;20789;-81
2024/02/11 03:11:49;;;;;;;1.13;1.13;;;;;;;;;;5034018;28;20766;-81
2024/02/11 03:14:15;;;;;;;1.00;1.00;;;;;;;;;;5033601;28;20416;-81
2024/02/11 03:16:45;;;;;;;0.95;0.95;;;;;;;;;;5033598;28;20403;-81
2024/02/11 03:19:13;;;;;;;1.05;1.05;;;;;;;;;;5033493;28;20458;-81
2024/02/11 03:21:40;;;;;;;1.20;1.20;;;;;;;;;;5033429;28;20376;-80
2024/02/11 03:24:07;;;;;;;1.45;1.35;;;;;;;;;;5033673;28;20379;-80
2024/02/11 03:26:33;;;;;;;1.40;1.30;;;;;;;;;;5033937;28;20380;-81
2024/02/11 03:29:00;;;;;;;1.27;1.17;;;;;;;;;;5033870;28;20462;-79
2024/02/11 03:31:27;;;;;;;1.30;1.20;;;;;;;;;;5033328;28;21093;-79
2024/02/11 03:33:53;;;;;;;1.40;1.20;;;;;;;;;;5033923;28;20383;-79
2024/02/11 03:36:19;;;;;;;1.40;1.30;;;;;;;;;;5033819;28;20418;-79
2024/02/11 03:38:45;;;;;;;1.53;1.43;;;;;;;;;;5033226;28;20379;-80
2024/02/11 03:41:12;;;;;;;1.80;1.48;;;;;;;;;;5033287;28;20375;-79
2024/02/11 03:43:38;;;;;;;1.70;1.60;;;;;;;;;;5033216;28;20838;-79
2024/02/11 03:46:06;;;;;;;1.63;1.52;;;;;;;;;;5033159;28;20391;-80
2024/02/11 03:48:32;;;;;;;2.00;1.80;;;;;;;;;;5032359;28;20432;-80
2024/02/11 03:51:02;;;;;;;2.10;1.90;;;;;;;;;;5033465;28;20398;-80
2024/02/11 03:53:28;;;;;;;2.40;1.90;;;;;;;;;;5033197;28;20467;-80
2024/02/11 03:55:54;;;;;;;2.15;1.95;;;;;;;;;;5032671;28;20976;-79
2024/02/11 03:58:20;;;;;;;2.40;2.20;;;;;;;;;;5033354;28;20825;-79
2024/02/11 04:00:48;;;;;;;2.13;1.95;;;;;;;;;;5033390;28;20444;-79
2024/02/11 04:03:17;;;;;;;2.00;1.90;;;;;;;;;;5033447;28;20379;-81
2024/02/11 04:05:43;;;;;;;2.25;2.13;;;;;;;;;;5033757;28;20387;-79
2024/02/11 04:08:12;;;;;;;1.80;1.70;;;;;;;;;;5033187;28;20383;-79
2024/02/11 04:10:39;;;;;;;1.95;1.80;;;;;;;;;;5033114;28;20418;-79
2024/02/11 04:13:06;;;;;;;2.00;1.83;;;;;;;;;;5033813;28;20725;-80
2024/02/11 04:15:35;;;;;;;1.90;1.80;;;;;;;;;;5033517;28;20407;-80
2024/02/11 04:18:10;;;;;;;2.47;1.67;;;;;;;;;;5032888;28;20379;-80
2024/02/11 04:20:36;;;;;;;1.50;1.40;;;;;;;;;;5033033;28;20726;-79
2024/02/11 04:23:03;;;;;;;1.55;1.45;;;;;;;;;;5033166;28;20390;-79
2024/02/11 04:25:34;;;;;;;1.67;1.58;;;;;;;;;;5032914;28;20455;-80
2024/02/11 04:28:00;;;;;;;1.98;1.85;;;;;;;;;;5032830;28;20417;-80
2024/02/11 04:30:29;;;;;;;2.08;1.60;;;;;;;;;;5032741;28;20391;-80
2024/02/11 04:32:55;;;;;;;1.95;1.73;;;;;;;;;;5033032;28;20470;-80
2024/02/11 04:35:24;;;;;;;1.80;1.70;;;;;;;;;;5032969;28;20986;-80
2024/02/11 04:37:52;;;;;;;1.90;1.80;;;;;;;;;;5032770;28;20826;-79
2024/02/11 04:40:19;;;;;;;2.50;1.90;;;;;;;;;;5032929;28;20386;-80
2024/02/11 04:42:46;;;;;;;2.25;1.90;;;;;;;;;;5032889;28;20454;-80
2024/02/11 04:45:16;;;;;;;2.65;1.98;;;;;;;;;;5032758;28;20815;-79
2024/02/11 04:47:49;;;;;;;2.08;1.90;;;;;;;;;;5033237;28;20382;-80
2024/02/11 04:50:21;;;;;;;2.43;2.23;;;;;;;;;;5033104;28;20441;-81
2024/02/11 04:52:48;;;;;;;2.40;2.20;;;;;;;;;;5015004;28;20405;-80
2024/02/11 04:55:14;;;;;;;2.72;2.47;;;;;;;;;;5032323;28;20498;-80
2024/02/11 04:57:41;;;;;;;2.60;2.40;;;;;;;;;;5028867;28;20812;-81
2024/02/11 05:00:10;;;;;;;2.80;2.60;;;;;;;;;;5029460;28;20388;-80
2024/02/11 05:02:44;;;;;;;2.75;2.40;;;;;;;;;;5029334;28;20400;-80
2024/02/11 05:05:11;;;;;;;2.87;2.67;;;;;;;;;;5035239;28;20414;-80
2024/02/11 05:07:37;;;;;;;3.25;2.85;;;;;;;;;;5036048;28;20385;-80
2024/02/11 05:10:05;;;;;;;3.15;2.85;;;;;;;;;;5036103;28;20728;-80
2024/02/11 05:12:31;;;;;;;3.28;2.75;;;;;;;;;;5036076;28;20387;-81
2024/02/11 05:14:57;;;;;;;3.17;2.88;;;;;;;;;;5036467;28;20486;-81
2024/02/11 05:17:25;;;;;;;3.65;3.05;;;;;;;;;;5035862;28;20455;-81
2024/02/11 05:19:51;;;;;;;3.50;3.17;;;;;;;;;;5036254;28;20927;-80
2024/02/11 05:22:17;;;;;;;3.58;3.28;;;;;;;;;;5035894;28;20411;-80
2024/02/11 05:24:45;;;;;;;3.22;3.03;;;;;;;;;;5036061;28;20390;-80
2024/02/11 05:27:12;;;;;;;3.20;2.92;;;;;;;;;;5036338;28;20912;-80
2024/02/11 05:29:38;;;;;;;3.40;3.10;;;;;;;;;;5035865;28;20391;-80
2024/02/11 05:32:08;;;;;;;4.20;3.00;;;;;;;;;;5035838;28;20443;-80
2024/02/11 05:34:38;;;;;;;3.47;3.17;;;;;;;;;;5035639;28;20383;-80
2024/02/11 05:37:07;;;;;;;3.40;3.10;;;;;;;;;;5035716;28;20403;-80
2024/02/11 05:39:36;;;;;;;3.73;3.43;;;;;;;;;;5035391;28;20463;-81
2024/02/11 05:42:09;;;;;;;3.40;3.10;;;;;;;;;;5035548;28;20383;-80
2024/02/11 05:44:35;;;;;;;3.45;3.15;;;;;;;;;;5035563;28;20391;-81
2024/02/11 05:47:01;;;;;;;3.25;3.03;;;;;;;;;;5035638;28;20398;-81
2024/02/11 05:49:30;;;;;;;3.25;3.05;;;;;;;;;;5035450;28;20837;-81
2024/02/11 05:51:57;;;;;;;3.40;3.08;;;;;;;;;;5035430;28;20514;-80
2024/02/11 05:54:25;;;;;;;3.10;2.90;;;;;;;;;;5035419;28;20720;-81
2024/02/11 05:56:51;;;;;;;2.95;2.75;;;;;;;;;;5035098;28;20753;-81
2024/02/11 05:59:17;;;;;;;3.40;2.70;;;;;;;;;;5035526;28;20375;-81
2024/02/11 06:01:43;;;;;;;3.85;3.17;;;;;;;;;;5035409;28;20383;-80
2024/02/11 06:04:09;;;;;;;3.38;3.08;;;;;;;;;;5035711;28;20570;-80
2024/02/11 06:06:35;;;;;;;3.45;3.17;;;;;;;;;;5037031;28;20394;-81
2024/02/11 06:09:04;;;;;;;3.40;3.10;;;;;;;;;;5036906;28;20433;-79
2024/02/11 06:11:31;;;;;;;3.40;3.10;;;;;;;;;;5036282;28;20884;-80
2024/02/11 06:13:57;;;;;;;3.70;3.30;;;;;;;;;;5036357;28;20398;-80
2024/02/11 06:16:24;;;;;;;3.90;3.13;;;;;;;;;;5036493;28;20430;-80
2024/02/11 06:18:50;;;;;;;4.18;3.42;;;;;;;;;;5036003;28;20379;-80
2024/02/11 06:21:17;;;;;;;3.58;2.90;;;;;;;;;;5035561;28;20375;-80
2024/02/11 06:23:43;;;;;;;3.10;2.83;;;;;;;;;;5035507;28;20838;-80
2024/02/11 06:26:09;;;;;;;4.45;3.05;;;;;;;;;;5034916;28;20394;-80
2024/02/11 06:28:36;;;;;;;3.60;3.13;;;;;;;;;;5034919;28;20449;-80
2024/02/11 06:31:02;;;;;;;3.05;2.85;;;;;;;;;;5035087;28;20390;-80
2024/02/11 06:33:28;;;;;;;3.60;3.30;;;;;;;;;;5035350;28;20380;-80
2024/02/11 06:35:54;;;;;;;3.83;3.10;;;;;;;;;;5035101;28;20411;-80
2024/02/11 06:38:20;;;;;;;3.53;3.22;;;;;;;;;;5034682;28;20379;-79
2024/02/11 06:40:47;;;;;;;3.58;3.28;;;;;;;;;;5034602;28;20919;-80
2024/02/11 06:43:13;;;;;;;3.40;3.10;;;;;;;;;;5034553;28;20873;-80
2024/02/11 06:45:45;;;;;;;3.33;3.03;;;;;;;;;;5035047;28;20857;-80
2024/02/11 06:48:12;;;;;;;3.63;2.95;;;;;;;;;;5035055;28;20907;-80
2024/02/11 06:50:38;;;;;;;3.38;3.08;;;;;;;;;;5034666;28;20386;-80
2024/02/11 06:53:06;;;;;;;3.30;3.00;;;;;;;;;;5034141;28;20380;-81
2024/02/11 06:55:32;;;;;;;3.45;2.92;;;;;;;;;;5033857;28;20411;-80
2024/02/11 06:57:59;;;;;;;3.30;3.00;;;;;;;;;;5033764;28;20384;-80
2024/02/11 07:00:25;;;;;;;3.40;3.10;;;;;;;;;;5033611;28;20444;-80
2024/02/11 07:02:55;;;;;;;3.63;3.17;;;;;;;;;;5033611;28;20821;-80
2024/02/11 07:05:21;;;;;;;3.35;3.05;;;;;;;;;;5033969;28;20900;-80
2024/02/11 07:07:48;;;;;;;3.80;3.03;;;;;;;;;;5033531;28;20390;-81
2024/02/11 07:10:14;;;;;;;3.63;3.33;;;;;;;;;;5033995;28;20383;-80
2024/02/11 07:12:41;;;;;;;3.58;3.28;;;;;;;;;;5033172;28;20385;-81
2024/02/11 07:15:08;;;;;;;4.32;3.50;;;;;;;;;;5033383;28;20383;-81
2024/02/11 07:17:36;;;;;;;3.30;3.00;;;;;;;;;;5033103;28;20375;-81
2024/02/11 07:20:02;;;;;;;3.55;3.25;;;;;;;;;;5033451;28;20861;-80
2024/02/11 07:22:28;;;;;;;3.47;3.17;;;;;;;;;;5032783;28;20470;-81
2024/02/11 07:24:55;;;;;;;3.30;3.00;;;;;;;;;;5034519;28;20410;-81
2024/02/11 07:27:23;;;;;;;4.05;3.15;;;;;;;;;;5034198;28;20375;-81
2024/02/11 07:29:49;;;;;;;3.45;2.97;;;;;;;;;;5033815;28;20822;-81
2024/02/11 07:32:15;;;;;;;3.05;2.78;;;;;;;;;;5034639;28;20868;-81
2024/02/11 07:34:42;;;;;;;3.28;2.97;;;;;;;;;;5033861;28;20379;-80
2024/02/11 07:37:08;;;;;;;4.00;3.10;;;;;;;;;;5033438;28;20403;-80
2024/02/11 07:39:34;;;;;;;3.33;3.03;;;;;;;;;;5033121;28;20715;-81
2024/02/11 07:42:00;;;;;;;3.40;3.10;;;;;;;;;;5033491;28;20462;-81
2024/02/11 07:44:26;;;;;;;3.13;2.90;;;;;;;;;;5033560;28;20403;-80
2024/02/11 07:46:53;;;;;;;3.55;3.10;;;;;;;;;;5033735;28;20387;-81
2024/02/11 07:49:20;;;;;;;3.70;2.80;;;;;;;;;;5034218;28;20478;-81
2024/02/11 07:51:46;;;;;;;3.13;2.83;;;;;;;;;;5033907;28;20389;-81
2024/02/11 07:54:12;;;;;;;2.85;2.65;;;;;;;;;;5034032;28;20383;-81
2024/02/11 07:56:43;;;;;;;2.75;2.50;;;;;;;;;;5034377;28;20513;-81
2024/02/11 07:59:11;;;;;;;2.63;2.42;;;;;;;;;;5034146;28;20425;-81
2024/02/11 08:01:37;;;;;;;2.63;2.20;;;;;;;;;;5034095;28;20375;-81
2024/02/11 08:04:03;;;;;;;2.70;2.40;;;;;;;;;;5034171;28;20399;-81
2024/02/11 08:06:30;;;;;;;2.70;2.50;;;;;;;;;;5034180;28;20453;-81
2024/02/11 08:08:56;;;;;;;3.03;2.78;;;;;;;;;;5033563;28;20375;-81
2024/02/11 08:11:23;;;;;;;2.63;2.40;;;;;;;;;;5033464;28;20399;-81
2024/02/11 08:13:54;;;;;;;2.73;2.07;;;;;;;;;;5033862;28;20397;-81
2024/02/11 08:16:22;;;;;;;2.60;2.40;;;;;;;;;;5033558;28;20419;-81
2024/02/11 08:18:48;;;;;;;4.20;2.25;;;;;;;;;;5033520;28;20387;-81
2024/02/11 08:21:14;;;;;;;2.47;2.28;;;;;;;;;;5033846;28;20378;-81
2024/02/11 08:23:40;;;;;;;2.40;2.20;;;;;;;;;;5033700;28;20383;-81
2024/02/11 08:26:06;;;;;;;2.63;2.40;;;;;;;;;;5033931;28;20422;-81
2024/02/11 08:28:32;;;;;;;3.28;2.20;;;;;;;;;;5034293;28;20379;-81
2024/02/11 08:30:58;;;;;;;2.60;2.30;;;;;;;;;;5034079;28;20790;-81
2024/02/11 08:33:24;;;;;;;3.50;2.63;;;;;;;;;;5033400;28;21025;-81
2024/02/11 08:35:53;;;;;;;3.47;2.70;;;;;;;;;;5036779;28;20407;-81
2024/02/11 08:38:19;;;;;;;3.30;2.90;;;;;;;;;;5037477;28;20414;-81
2024/02/11 08:40:45;;;;;;;3.15;2.85;;;;;;;;;;5037659;28;20406;-81
2024/02/11 08:43:11;;;;;;;3.83;2.80;;;;;;;;;;5037817;28;20375;-81
2024/02/11 08:45:37;;;;;;;3.22;2.90;;;;;;;;;;5037949;28;20397;-81
2024/02/11 08:48:04;;;;;;;2.80;2.60;;;;;;;;;;5037500;28;20387;-81
2024/02/11 08:50:29;;;;;;;3.25;2.97;;;;;;;;;;5037836;28;20387;-81
2024/02/11 08:52:56;;;;;;;3.20;2.90;;;;;;;;;;5037606;28;20474;-81
2024/02/11 08:55:22;;;;;;;3.97;3.10;;;;;;;;;;5037336;28;20411;-81
2024/02/11 08:57:48;;;;;;;2.97;2.78;;;;;;;;;;5037222;28;20390;-81
2024/02/11 09:00:18;;;;;;;3.30;2.93;;;;;;;;;;5037287;28;20403;-81
2024/02/11 09:02:46;;;;;;;2.80;2.60;;;;;;;;;;5037357;28;20382;-83
2024/02/11 09:05:12;;;;;;;4.23;3.20;;;;;;;;;;5036552;28;20414;-82
2024/02/11 09:07:38;;;;;;;3.15;2.80;;;;;;;;;;5037225;28;20725;-82
2024/02/11 09:10:05;;;;;;;2.97;2.75;;;;;;;;;;5037709;28;20379;-82
2024/02/11 09:12:31;;;;;;;3.27;2.90;;;;;;;;;;5036762;28;20377;-82
2024/02/11 09:14:57;;;;;;;3.33;3.00;;;;;;;;;;5037118;28;20398;-82
2024/02/11 09:17:24;;;;;;;4.10;3.40;;;;;;;;;;5036995;28;20490;-82
2024/02/11 09:19:52;;;;;;;3.33;3.03;;;;;;;;;;5037320;28;20426;-81
2024/02/11 09:22:18;;;;;;;3.50;3.17;;;;;;;;;;5037579;28;20379;-82
2024/02/11 09:24:44;;;;;;;3.90;3.50;;;;;;;;;;5036698;28;20375;-82
2024/02/11 09:27:10;;;;;;;3.65;3.35;;;;;;;;;;5036751;28;20387;-82
2024/02/11 09:29:37;;;;;;;3.83;3.53;;;;;;;;;;5036740;28;20471;-82
2024/02/11 09:32:03;;;;;;;3.55;3.25;;;;;;;;;;5035905;28;20383;-81
2024/02/11 09:34:29;;;;;;;4.03;3.28;;;;;;;;;;5035719;28;20384;-81
2024/02/11 09:36:56;;;;;;;5.18;3.38;;;;;;;;;;5035808;28;20482;-81
2024/02/11 09:39:22;;;;;;;3.45;3.15;;;;;;;;;;5035569;28;20382;-81
2024/02/11 09:41:48;;;;;;;4.17;3.77;;;;;;;;;;5035240;28;20379;-81
2024/02/11 09:44:18;;;;;;;4.10;3.65;;;;;;;;;;5035615;28;20385;-81
2024/02/11 09:46:45;;;;;;;3.80;3.40;;;;;;;;;;5034800;28;20775;-82
2024/02/11 09:49:13;;;;;;;4.80;3.63;;;;;;;;;;5035111;28;20938;-81
2024/02/11 09:51:41;;;;;;;3.50;3.17;;;;;;;;;;5035195;28;21129;-81
2024/02/11 09:54:07;;;;;;;3.63;3.28;;;;;;;;;;5034846;28;20383;-81
2024/02/11 09:56:33;;;;;;;3.50;3.10;;;;;;;;;;5035017;28;20526;-81
2024/02/11 09:58:59;;;;;;;3.95;3.65;;;;;;;;;;5035101;28;20939;-81
2024/02/11 10:01:25;;;;;;;4.93;4.45;;;;;;;;;;5034855;28;20386;-81
2024/02/11 10:03:53;;;;;;;4.60;4.15;;;;;;;;;;5035266;28;20445;-81
2024/02/11 10:06:25;;;;;;;4.13;3.42;;;;;;;;;;5035885;28;20398;-81
2024/02/11 10:08:51;;;;;;;3.80;3.13;;;;;;;;;;5035713;28;20383;-80
2024/02/11 10:11:18;;;;;;;3.53;3.22;;;;;;;;;;5035323;28;20889;-80
2024/02/11 10:13:45;;;;;;;3.80;3.50;;;;;;;;;;5035626;28;21152;-81
2024/02/11 10:16:12;;;;;;;3.50;2.78;;;;;;;;;;5035407;28;20506;-80
2024/02/11 10:18:39;;;;;;;3.33;3.03;;;;;;;;;;5034984;28;20379;-80
2024/02/11 10:21:09;;;;;;;3.35;2.58;;;;;;;;;;5035053;28;20379;-81
2024/02/11 10:23:41;;;;;;;3.03;2.60;;;;;;;;;;5035113;28;20449;-80
2024/02/11 10:26:07;;;;;;;3.28;2.35;;;;;;;;;;5035121;28;20387;-80
2024/02/11 10:28:38;;;;;;;2.70;2.50;;;;;;;;;;5035233;28;20478;-80
2024/02/11 10:31:05;;;;;;;3.38;3.00;;;;;;;;;;5035304;28;20380;-80
2024/02/11 10:33:31;;;;;;;3.10;2.80;;;;;;;;;;5035614;28;20387;-80
2024/02/11 10:35:58;;;;;;;3.03;2.80;;;;;;;;;;5034640;28;20403;-80
2024/02/11 10:38:25;;;;;;;3.55;3.25;;;;;;;;;;5034381;28;20998;-80
2024/02/11 10:40:52;;;;;;;3.42;2.97;;;;;;;;;;5034230;28;20875;-80
2024/02/11 10:43:21;;;;;;;2.80;2.60;;;;;;;;;;5035131;28;20443;-80
2024/02/11 10:45:47;;;;;;;3.20;2.67;;;;;;;;;;5034524;28;20411;-82
2024/02/11 10:48:13;;;;;;;3.78;2.70;;;;;;;;;;5035855;28;20395;-81
2024/02/11 10:50:39;;;;;;;4.60;3.00;;;;;;;;;;5036188;28;20895;-80
2024/02/11 10:53:09;;;;;;;3.03;2.67;;;;;;;;;;5034664;28;20402;-80
2024/02/11 10:55:44;;;;;;;3.10;2.50;;;;;;;;;;5034957;28;20406;-81
2024/02/11 10:58:12;;;;;;;2.77;2.20;;;;;;;;;;5034967;28;20385;-80
2024/02/11 11:00:39;;;;;;;2.53;2.33;;;;;;;;;;5035808;28;20442;-80
2024/02/11 11:03:07;;;;;;;2.30;2.10;;;;;;;;;;5035434;28;20387;-80
2024/02/11 11:05:36;;;;;;;2.28;2.08;;;;;;;;;;5035724;28;20425;-81
2024/02/11 11:08:02;;;;;;;3.20;2.30;;;;;;;;;;5035695;28;20383;-81
2024/02/11 11:10:35;;;;;;;3.00;2.70;;;;;;;;;;5035391;28;20823;-80
2024/02/11 11:13:01;;;;;;;2.67;2.40;;;;;;;;;;5034561;28;20439;-81
2024/02/11 11:15:31;;;;;;;2.50;2.30;;;;;;;;;;5034834;28;20426;-81
2024/02/11 11:17:59;;;;;;;2.47;2.20;;;;;;;;;;5035009;28;20379;-81
2024/02/11 11:20:25;;;;;;;2.47;2.08;;;;;;;;;;5035284;28;20457;-81
2024/02/11 11:22:51;;;;;;;2.90;2.40;;;;;;;;;;5034986;28;21009;-81
2024/02/11 11:25:23;;;;;;;2.80;2.47;;;;;;;;;;5034946;28;20375;-80
2024/02/11 11:27:50;;;;;;;2.42;2.22;;;;;;;;;;5034560;28;20375;-81
2024/02/11 11:30:16;;;;;;;2.90;2.13;;;;;;;;;;5034827;28;20422;-81
2024/02/11 11:32:46;;;;;;;2.50;2.10;;;;;;;;;;5034230;28;20857;-80
2024/02/11 11:35:17;;;;;;;3.72;2.47;;;;;;;;;;5034833;28;20380;-81
2024/02/11 11:37:43;;;;;;;3.80;2.60;;;;;;;;;;5034647;28;20387;-81
2024/02/11 11:40:10;;;;;;;3.38;2.33;;;;;;;;;;5020800;28;20363;-81
2024/02/11 11:42:36;;;;;;;2.20;1.80;;;;;;;;;;5034384;28;20375;-81
2024/02/11 11:45:06;;;;;;;2.67;2.10;;;;;;;;;;5034882;28;20407;-80
2024/02/11 11:47:35;;;;;;;2.75;1.90;;;;;;;;;;5033863;28;20441;-80
2024/02/11 11:50:06;;;;;;;3.10;2.10;;;;;;;;;;5034679;28;20884;-80
2024/02/11 11:52:33;;;;;;;2.65;1.85;;;;;;;;;;5034402;28;20905;-80
2024/02/11 11:55:00;;;;;;;2.65;2.22;;;;;;;;;;5033910;28;20415;-80
2024/02/11 11:57:26;;;;;;;2.47;2.10;;;;;;;;;;5033503;28;20434;-80
2024/02/11 11:59:57;;;;;;;2.92;2.42;;;;;;;;;;5034056;28;20379;-80
2024/02/11 12:02:23;;;;;;;2.20;1.83;;;;;;;;;;5034048;28;20450;-80
2024/02/11 12:04:49;;;;;;;2.30;2.05;;;;;;;;;;5033835;28;20443;-81
2024/02/11 12:07:15;;;;;;;2.08;1.75;;;;;;;;;;5033683;28;20857;-80
2024/02/11 12:09:41;;;;;;;2.75;2.22;;;;;;;;;;5036057;28;20395;-80
2024/02/11 12:12:08;;;;;;;3.13;1.88;;;;;;;;;;5038414;28;20387;-80
2024/02/11 12:14:36;;;;;;;2.80;2.10;;;;;;;;;;5038300;28;20383;-81
2024/02/11 12:17:03;;;;;;;2.20;1.73;;;;;;;;;;5038293;28;20406;-80
2024/02/11 12:19:37;;;;;;;2.75;1.67;;;;;;;;;;5037887;28;20394;-81
2024/02/11 12:22:04;;;;;;;2.20;1.80;;;;;;;;;;5038102;28;20849;-80
2024/02/11 12:24:30;;;;;;;3.72;2.35;;;;;;;;;;5037277;28;20486;-80
2024/02/11 12:26:59;;;;;;;2.00;1.50;;;;;;;;;;5037187;28;20804;-80
2024/02/11 12:29:27;;;;;;;1.67;1.48;;;;;;;;;;5037387;28;20395;-80
2024/02/11 12:31:53;;;;;;;1.90;1.20;;;;;;;;;;5037907;28;20861;-80
2024/02/11 12:34:21;;;;;;;1.88;1.40;;;;;;;;;;5037078;28;20395;-80
2024/02/11 12:36:47;;;;;;;1.40;1.27;;;;;;;;;;5037373;28;20434;-80
2024/02/11 12:39:13;;;;;;;1.80;1.30;;;;;;;;;;5037442;28;20390;-81
2024/02/11 12:41:40;;;;;;;1.73;1.00;;;;;;;;;;5036963;28;20407;-80
2024/02/11 12:44:07;;;;;;;2.05;1.40;;;;;;;;;;5037186;28;20375;-80
2024/02/11 12:46:34;;;;;;;1.52;1.20;;;;;;;;;;5037544;28;20390;-80
2024/02/11 12:49:00;;;;;;;2.05;1.30;;;;;;;;;;5038005;28;20394;-80
2024/02/11 12:51:26;;;;;;;1.85;1.73;;;;;;;;;;5038357;28;20849;-80
2024/02/11 12:53:52;;;;;;;2.15;1.35;;;;;;;;;;5038012;28;20388;-81
2024/02/11 12:56:18;;;;;;;2.50;1.70;;;;;;;;;;5038721;28;20414;-81
2024/02/11 12:58:45;;;;;;;2.70;2.00;;;;;;;;;;5039589;28;20401;-80
2024/02/11 13:01:12;;;;;;;3.10;2.38;;;;;;;;;;5039710;28;20439;-81
2024/02/11 13:03:41;;;;;;;2.00;1.55;;;;;;;;;;5039201;28;20403;-81
2024/02/11 13:06:07;;;;;;;2.72;1.73;;;;;;;;;;5039743;28;20841;-80
2024/02/11 13:08:34;;;;;;;1.73;0.80;;;;;;;;;;5039383;28;20391;-80
2024/02/11 13:11:00;;;;;;;1.80;1.00;;;;;;;;;;5039037;28;20387;-80
2024/02/11 13:13:27;;;;;;;3.00;1.73;;;;;;;;;;5038456;28;20391;-80
2024/02/11 13:15:53;;;;;;;2.67;1.60;;;;;;;;;;5038059;28;20419;-80
2024/02/11 13:18:19;;;;;;;1.90;1.23;;;;;;;;;;5037542;28;20854;-80
2024/02/11 13:20:46;;;;;;;2.67;1.60;;;;;;;;;;5037088;28;20462;-80
2024/02/11 13:23:12;;;;;;;3.00;1.90;;;;;;;;;;5038266;28;20394;-80
2024/02/11 13:25:40;;;;;;;1.83;1.50;;;;;;;;;;5038090;28;20383;-80
2024/02/11 13:28:09;;;;;;;2.35;1.63;;;;;;;;;;5038389;28;20872;-80
2024/02/11 13:30:37;;;;;;;2.20;1.92;;;;;;;;;;5038602;28;20421;-81
2024/02/11 13:33:03;;;;;;;2.08;1.88;;;;;;;;;;5038064;28;20383;-81
2024/02/11 13:35:29;;;;;;;2.00;1.80;;;;;;;;;;5037795;28;20379;-81
2024/02/11 13:37:54;;;;;;;2.78;1.85;;;;;;;;;;5038326;28;20387;-80
2024/02/11 13:40:22;;;;;;;2.72;2.03;;;;;;;;;;5037843;28;20390;-80
2024/02/11 13:42:48;;;;;;;1.75;1.60;;;;;;;;;;5037800;28;20821;-80
2024/02/11 13:45:14;;;;;;;2.50;1.55;;;;;;;;;;5037337;28;20438;-80
2024/02/11 13:47:41;;;;;;;2.17;1.75;;;;;;;;;;5036276;28;20419;-80
2024/02/11 13:50:08;;;;;;;2.35;1.80;;;;;;;;;;5036056;28;20777;-80
2024/02/11 13:52:34;;;;;;;1.80;1.70;;;;;;;;;;5036438;28;20379;-80
2024/02/11 13:55:02;;;;;;;2.22;2.00;;;;;;;;;;5036050;28;20445;-80
2024/02/11 13:57:28;;;;;;;2.05;1.85;;;;;;;;;;5036076;28;20439;-80
2024/02/11 13:59:57;;;;;;;2.13;1.92;;;;;;;;;;5036726;28;21144;-80
2024/02/11 14:02:23;;;;;;;2.58;1.85;;;;;;;;;;5035938;28;20437;-80
2024/02/11 14:04:49;;;;;;;2.03;1.80;;;;;;;;;;5035926;28;20407;-80
2024/02/11 14:07:15;;;;;;;2.95;2.00;;;;;;;;;;5035321;28;20391;-80
2024/02/11 14:09:43;;;;;;;1.92;1.77;;;;;;;;;;5036365;28;20380;-80
2024/02/11 14:12:09;;;;;;;1.90;1.40;;;;;;;;;;5036448;28;20382;-80
2024/02/11 14:14:39;;;;;;;2.38;1.42;;;;;;;;;;5036487;28;20397;-80
2024/02/11 14:17:05;;;;;;;2.70;1.35;;;;;;;;;;5036511;28;20776;-80
2024/02/11 14:19:31;;;;;;;1.70;1.38;;;;;;;;;;5036753;28;20375;-80
2024/02/11 14:22:03;;;;;;;1.33;1.20;;;;;;;;;;5036505;28;20429;-80
2024/02/11 14:24:30;;;;;;;1.67;1.20;;;;;;;;;;5036526;28;20387;-80
2024/02/11 14:27:00;;;;;;;1.80;1.00;;;;;;;;;;5033988;28;20509;-80
2024/02/11 14:29:27;;;;;;;1.60;1.10;;;;;;;;;;5036215;28;20383;-80
2024/02/11 14:31:53;;;;;;;1.40;1.05;;;;;;;;;;5035791;28;20388;-81
2024/02/11 14:34:19;;;;;;;1.50;0.77;;;;;;;;;;5036440;28;20449;-80
2024/02/11 14:36:46;;;;;;;0.82;0.70;;;;;;;;;;5036410;28;20411;-80
2024/02/11 14:39:12;;;;;;;1.60;1.17;;;;;;;;;;5036046;28;20860;-80
2024/02/11 14:41:40;;;;;;;1.50;1.20;;;;;;;;;;5036132;28;20409;-80